Kezdőlap
METAR-TAF:

METAR-TAF

Repülőterek :

Hartford, Connecticut, Amerikai Egyesült Államok

földrajzi szélesség: 41-44-06N, földrajzi hosszúság: 072-39-06W, magasság: 5 m

Jelenlegi meteorológiai megfigyelések

A jelentés 1 órával és 6 perccel ezelõtt készült, 12:53 UTC
Dél-délkeleti szél 3 kt
Hőmérséklet -12°C
Páratartalom 92%
Légköri nyomás 1031 hPa
Látótávolság: 16.1 km
Derült ég

METAR: KHFD 211253Z 16003KT 10SM CLR M12/M13 A3044 RMK AO2 SLP307 I1000 T11221133

Idő: 08:59 (13:59 UTC)


TAF: hiányzik

Meteorológiai megfigyelések és előrejelzések több, mint 4000 repülőtéren (METAR és TAF jelentéseket).

A térképen piros és sárga pontok jelzik az elérhető meteorológiai állomásokat.

Mozgassa az egeret a pont fölött, hogy megjelenjen az állomás neve.

Azután kattintson az időjárási megfigyelések és előrejelzések megtekintéséhez.

A térkép megváltoztatása: kattintson a fekete keresztel jelölt zöld gombra ráközelítéshez, a vonallal jelölt zöld gombra távolításhoz, vagy a zöld nyilakra a szomszédos térképek eléréséhez.


METAR-TAF: